sensor_id;sensor_type;location;lat;lon;timestamp;P1;durP1;ratioP1;P2;durP2;ratioP2
54193;SDS011;40102;50.906;6.972;2022-09-03T00:01:45;3.30;;;1.45;;
54193;SDS011;40102;50.906;6.972;2022-09-03T00:07:18;1.50;;;1.33;;
54193;SDS011;40102;50.906;6.972;2022-09-03T00:09:52;6.38;;;1.20;;
54193;SDS011;40102;50.906;6.972;2022-09-03T00:12:25;1.45;;;1.00;;
54193;SDS011;40102;50.906;6.972;2022-09-03T00:17:34;1.15;;;1.00;;
54193;SDS011;40102;50.906;6.972;2022-09-03T00:20:10;3.78;;;1.40;;
54193;SDS011;40102;50.906;6.972;2022-09-03T00:22:42;3.65;;;1.30;;
54193;SDS011;40102;50.906;6.972;2022-09-03T00:25:11;1.92;;;1.13;;
54193;SDS011;40102;50.906;6.972;2022-09-03T00:27:41;2.35;;;1.20;;
54193;SDS011;40102;50.906;6.972;2022-09-03T00:30:13;1.30;;;1.08;;
54193;SDS011;40102;50.906;6.972;2022-09-03T00:32:56;2.70;;;1.30;;
54193;SDS011;40102;50.906;6.972;2022-09-03T00:35:49;3.38;;;1.00;;
54193;SDS011;40102;50.906;6.972;2022-09-03T00:38:30;1.92;;;0.98;;
54193;SDS011;40102;50.906;6.972;2022-09-03T00:44:01;1.27;;;1.13;;
54193;SDS011;40102;50.906;6.972;2022-09-03T00:46:39;1.92;;;1.10;;
54193;SDS011;40102;50.906;6.972;2022-09-03T00:51:58;1.83;;;1.38;;
54193;SDS011;40102;50.906;6.972;2022-09-03T00:57:38;1.40;;;1.20;;
54193;SDS011;40102;50.906;6.972;2022-09-03T01:00:25;5.55;;;1.45;;
54193;SDS011;40102;50.906;6.972;2022-09-03T01:02:54;2.58;;;1.27;;
54193;SDS011;40102;50.906;6.972;2022-09-03T01:08:26;1.80;;;1.15;;
54193;SDS011;40102;50.906;6.972;2022-09-03T01:23:10;2.97;;;1.20;;
54193;SDS011;40102;50.906;6.972;2022-09-03T01:26:22;2.00;;;1.30;;
54193;SDS011;40102;50.906;6.972;2022-09-03T01:28:58;2.03;;;1.17;;
54193;SDS011;40102;50.906;6.972;2022-09-03T01:39:16;6.70;;;1.38;;
54193;SDS011;40102;50.906;6.972;2022-09-03T01:42:39;1.63;;;1.30;;
54193;SDS011;40102;50.906;6.972;2022-09-03T01:44:59;2.47;;;1.30;;
54193;SDS011;40102;50.906;6.972;2022-09-03T01:56:25;2.53;;;1.10;;
54193;SDS011;40102;50.906;6.972;2022-09-03T01:59:03;3.50;;;1.33;;
54193;SDS011;40102;50.906;6.972;2022-09-03T02:01:40;2.00;;;1.20;;
54193;SDS011;40102;50.906;6.972;2022-09-03T02:04:18;3.05;;;1.20;;
54193;SDS011;40102;50.906;6.972;2022-09-03T02:06:47;2.35;;;1.20;;
54193;SDS011;40102;50.906;6.972;2022-09-03T02:09:16;3.53;;;1.27;;
54193;SDS011;40102;50.906;6.972;2022-09-03T02:11:42;3.85;;;1.30;;
54193;SDS011;40102;50.906;6.972;2022-09-03T02:14:10;2.40;;;1.30;;
54193;SDS011;40102;50.906;6.972;2022-09-03T02:16:37;1.98;;;1.10;;
54193;SDS011;40102;50.906;6.972;2022-09-03T02:19:13;5.50;;;1.20;;
54193;SDS011;40102;50.906;6.972;2022-09-03T02:21:51;1.35;;;1.00;;
54193;SDS011;40102;50.906;6.972;2022-09-03T02:24:19;1.98;;;1.20;;
54193;SDS011;40102;50.906;6.972;2022-09-03T02:26:44;1.80;;;1.10;;
54193;SDS011;40102;50.906;6.972;2022-09-03T02:29:11;1.80;;;1.25;;
54193;SDS011;40102;50.906;6.972;2022-09-03T02:31:38;2.25;;;1.20;;
54193;SDS011;40102;50.906;6.972;2022-09-03T02:34:04;2.13;;;1.40;;
54193;SDS011;40102;50.906;6.972;2022-09-03T02:36:31;2.35;;;1.30;;
54193;SDS011;40102;50.906;6.972;2022-09-03T02:38:59;1.45;;;1.30;;
54193;SDS011;40102;50.906;6.972;2022-09-03T02:41:24;4.47;;;1.25;;
54193;SDS011;40102;50.906;6.972;2022-09-03T02:47:00;2.17;;;1.20;;
54193;SDS011;40102;50.906;6.972;2022-09-03T02:49:30;3.70;;;1.20;;
54193;SDS011;40102;50.906;6.972;2022-09-03T02:52:01;1.73;;;1.15;;
54193;SDS011;40102;50.906;6.972;2022-09-03T02:54:33;1.27;;;0.98;;
54193;SDS011;40102;50.906;6.972;2022-09-03T02:57:03;2.17;;;1.17;;
54193;SDS011;40102;50.906;6.972;2022-09-03T02:59:30;1.10;;;0.98;;
54193;SDS011;40102;50.906;6.972;2022-09-03T03:01:55;2.45;;;1.20;;
54193;SDS011;40102;50.906;6.972;2022-09-03T03:04:21;1.10;;;1.00;;
54193;SDS011;40102;50.906;6.972;2022-09-03T03:06:47;2.38;;;1.00;;
54193;SDS011;40102;50.906;6.972;2022-09-03T03:09:14;2.50;;;1.30;;
54193;SDS011;40102;50.906;6.972;2022-09-03T03:11:40;1.23;;;1.00;;
54193;SDS011;40102;50.906;6.972;2022-09-03T03:14:06;2.78;;;1.00;;
54193;SDS011;40102;50.906;6.972;2022-09-03T03:16:31;1.75;;;1.23;;
54193;SDS011;40102;50.906;6.972;2022-09-03T03:18:57;1.80;;;0.80;;
54193;SDS011;40102;50.906;6.972;2022-09-03T03:21:22;2.35;;;1.00;;
54193;SDS011;40102;50.906;6.972;2022-09-03T03:23:48;1.15;;;0.90;;
54193;SDS011;40102;50.906;6.972;2022-09-03T03:26:15;0.82;;;0.80;;
54193;SDS011;40102;50.906;6.972;2022-09-03T03:28:43;1.65;;;1.00;;
54193;SDS011;40102;50.906;6.972;2022-09-03T03:31:14;1.17;;;0.80;;
54193;SDS011;40102;50.906;6.972;2022-09-03T03:33:42;2.35;;;1.00;;
54193;SDS011;40102;50.906;6.972;2022-09-03T03:36:12;1.13;;;0.90;;
54193;SDS011;40102;50.906;6.972;2022-09-03T03:38:39;3.05;;;1.20;;
54193;SDS011;40102;50.906;6.972;2022-09-03T03:43:37;1.95;;;0.93;;
54193;SDS011;40102;50.906;6.972;2022-09-03T03:46:03;1.10;;;0.90;;
54193;SDS011;40102;50.906;6.972;2022-09-03T03:48:29;3.90;;;0.90;;
54193;SDS011;40102;50.906;6.972;2022-09-03T03:50:58;2.33;;;0.85;;
54193;SDS011;40102;50.906;6.972;2022-09-03T03:53:27;1.45;;;1.00;;
54193;SDS011;40102;50.906;6.972;2022-09-03T03:55:55;5.03;;;1.08;;
54193;SDS011;40102;50.906;6.972;2022-09-03T03:58:23;1.08;;;0.98;;
54193;SDS011;40102;50.906;6.972;2022-09-03T04:00:49;0.98;;;0.88;;
54193;SDS011;40102;50.906;6.972;2022-09-03T04:03:15;2.20;;;1.00;;
54193;SDS011;40102;50.906;6.972;2022-09-03T04:05:41;5.05;;;1.05;;
54193;SDS011;40102;50.906;6.972;2022-09-03T04:08:07;1.20;;;0.95;;
54193;SDS011;40102;50.906;6.972;2022-09-03T04:10:32;1.05;;;0.95;;
54193;SDS011;40102;50.906;6.972;2022-09-03T04:12:58;1.52;;;1.00;;
54193;SDS011;40102;50.906;6.972;2022-09-03T04:15:24;1.30;;;1.00;;
54193;SDS011;40102;50.906;6.972;2022-09-03T04:17:50;1.98;;;1.20;;
54193;SDS011;40102;50.906;6.972;2022-09-03T04:20:19;2.60;;;1.00;;
54193;SDS011;40102;50.906;6.972;2022-09-03T04:22:44;2.00;;;1.00;;
54193;SDS011;40102;50.906;6.972;2022-09-03T04:25:09;4.53;;;0.90;;
54193;SDS011;40102;50.906;6.972;2022-09-03T04:27:35;2.97;;;1.08;;
54193;SDS011;40102;50.906;6.972;2022-09-03T04:30:00;2.35;;;1.08;;
54193;SDS011;40102;50.906;6.972;2022-09-03T04:32:26;2.95;;;1.00;;
54193;SDS011;40102;50.906;6.972;2022-09-03T04:35:10;7.43;;;1.00;;
54193;SDS011;40102;50.906;6.972;2022-09-03T04:37:36;3.22;;;1.45;;
54193;SDS011;40102;50.906;6.972;2022-09-03T04:40:01;1.75;;;1.00;;
54193;SDS011;40102;50.906;6.972;2022-09-03T04:42:27;2.13;;;1.05;;
54193;SDS011;40102;50.906;6.972;2022-09-03T04:44:52;1.25;;;0.93;;
54193;SDS011;40102;50.906;6.972;2022-09-03T04:47:18;2.33;;;1.00;;
54193;SDS011;40102;50.906;6.972;2022-09-03T04:49:43;2.65;;;1.05;;
54193;SDS011;40102;50.906;6.972;2022-09-03T04:52:08;2.08;;;1.17;;
54193;SDS011;40102;50.906;6.972;2022-09-03T04:54:34;2.40;;;0.90;;
54193;SDS011;40102;50.906;6.972;2022-09-03T04:56:59;2.03;;;0.90;;
54193;SDS011;40102;50.906;6.972;2022-09-03T04:59:25;1.00;;;0.90;;
54193;SDS011;40102;50.906;6.972;2022-09-03T05:01:50;1.27;;;1.02;;
54193;SDS011;40102;50.906;6.972;2022-09-03T05:04:20;1.40;;;0.70;;
54193;SDS011;40102;50.906;6.972;2022-09-03T05:06:45;0.95;;;0.90;;
54193;SDS011;40102;50.906;6.972;2022-09-03T05:09:11;1.90;;;1.08;;
54193;SDS011;40102;50.906;6.972;2022-09-03T05:11:36;1.92;;;0.90;;
54193;SDS011;40102;50.906;6.972;2022-09-03T05:14:01;1.00;;;0.80;;
54193;SDS011;40102;50.906;6.972;2022-09-03T05:16:28;4.32;;;1.15;;
54193;SDS011;40102;50.906;6.972;2022-09-03T05:18:55;2.03;;;1.15;;
54193;SDS011;40102;50.906;6.972;2022-09-03T05:21:23;1.70;;;0.90;;
54193;SDS011;40102;50.906;6.972;2022-09-03T05:23:50;1.00;;;0.90;;
54193;SDS011;40102;50.906;6.972;2022-09-03T05:26:24;1.10;;;1.00;;
54193;SDS011;40102;50.906;6.972;2022-09-03T05:28:52;1.38;;;1.00;;
54193;SDS011;40102;50.906;6.972;2022-09-03T05:31:23;1.00;;;0.90;;
54193;SDS011;40102;50.906;6.972;2022-09-03T05:33:51;1.80;;;1.10;;
54193;SDS011;40102;50.906;6.972;2022-09-03T05:36:20;1.33;;;0.80;;
54193;SDS011;40102;50.906;6.972;2022-09-03T05:38:47;1.75;;;1.00;;
54193;SDS011;40102;50.906;6.972;2022-09-03T05:41:14;1.67;;;1.00;;
54193;SDS011;40102;50.906;6.972;2022-09-03T05:43:41;2.72;;;0.90;;
54193;SDS011;40102;50.906;6.972;2022-09-03T05:46:08;3.58;;;1.10;;
54193;SDS011;40102;50.906;6.972;2022-09-03T05:48:35;1.05;;;0.80;;
54193;SDS011;40102;50.906;6.972;2022-09-03T05:51:02;1.33;;;0.80;;
54193;SDS011;40102;50.906;6.972;2022-09-03T05:53:32;1.40;;;1.00;;
54193;SDS011;40102;50.906;6.972;2022-09-03T05:55:59;1.55;;;1.27;;
54193;SDS011;40102;50.906;6.972;2022-09-03T05:58:33;1.45;;;0.85;;
54193;SDS011;40102;50.906;6.972;2022-09-03T06:01:01;2.47;;;1.00;;
54193;SDS011;40102;50.906;6.972;2022-09-03T06:03:34;1.63;;;0.93;;
54193;SDS011;40102;50.906;6.972;2022-09-03T06:05:59;0.77;;;0.77;;
54193;SDS011;40102;50.906;6.972;2022-09-03T06:08:24;3.03;;;0.80;;
54193;SDS011;40102;50.906;6.972;2022-09-03T06:10:50;1.90;;;1.00;;
54193;SDS011;40102;50.906;6.972;2022-09-03T06:13:22;1.17;;;0.98;;
54193;SDS011;40102;50.906;6.972;2022-09-03T06:15:47;1.33;;;0.90;;
54193;SDS011;40102;50.906;6.972;2022-09-03T06:18:12;1.10;;;0.90;;
54193;SDS011;40102;50.906;6.972;2022-09-03T06:20:38;1.23;;;0.80;;
54193;SDS011;40102;50.906;6.972;2022-09-03T06:23:03;1.33;;;0.90;;
54193;SDS011;40102;50.906;6.972;2022-09-03T06:25:29;1.63;;;1.20;;
54193;SDS011;40102;50.906;6.972;2022-09-03T06:27:54;2.40;;;1.20;;
54193;SDS011;40102;50.906;6.972;2022-09-03T06:30:20;1.52;;;1.20;;
54193;SDS011;40102;50.906;6.972;2022-09-03T06:32:46;1.95;;;0.95;;
54193;SDS011;40102;50.906;6.972;2022-09-03T06:35:14;1.90;;;0.80;;
54193;SDS011;40102;50.906;6.972;2022-09-03T06:37:40;0.95;;;0.85;;
54193;SDS011;40102;50.906;6.972;2022-09-03T06:40:08;1.60;;;1.00;;
54193;SDS011;40102;50.906;6.972;2022-09-03T06:42:40;1.10;;;0.90;;
54193;SDS011;40102;50.906;6.972;2022-09-03T06:45:09;2.28;;;0.93;;
54193;SDS011;40102;50.906;6.972;2022-09-03T06:47:35;2.17;;;0.90;;
54193;SDS011;40102;50.906;6.972;2022-09-03T06:50:00;1.35;;;1.00;;
54193;SDS011;40102;50.906;6.972;2022-09-03T06:52:27;1.50;;;1.00;;
54193;SDS011;40102;50.906;6.972;2022-09-03T06:54:53;1.15;;;1.00;;
54193;SDS011;40102;50.906;6.972;2022-09-03T06:57:19;2.00;;;1.05;;
54193;SDS011;40102;50.906;6.972;2022-09-03T06:59:44;2.85;;;1.35;;
54193;SDS011;40102;50.906;6.972;2022-09-03T07:02:09;2.30;;;1.20;;
54193;SDS011;40102;50.906;6.972;2022-09-03T07:04:35;2.00;;;1.00;;
54193;SDS011;40102;50.906;6.972;2022-09-03T07:07:00;1.90;;;1.27;;
54193;SDS011;40102;50.906;6.972;2022-09-03T07:09:26;1.27;;;1.15;;
54193;SDS011;40102;50.906;6.972;2022-09-03T07:11:52;1.48;;;1.30;;
54193;SDS011;40102;50.906;6.972;2022-09-03T07:14:18;3.50;;;1.48;;
54193;SDS011;40102;50.906;6.972;2022-09-03T07:16:45;2.40;;;1.25;;
54193;SDS011;40102;50.906;6.972;2022-09-03T07:19:11;1.95;;;1.15;;
54193;SDS011;40102;50.906;6.972;2022-09-03T07:21:37;1.65;;;1.30;;
54193;SDS011;40102;50.906;6.972;2022-09-03T07:24:05;1.10;;;0.90;;
54193;SDS011;40102;50.906;6.972;2022-09-03T07:26:33;3.70;;;1.00;;
54193;SDS011;40102;50.906;6.972;2022-09-03T07:28:59;1.65;;;1.00;;
54193;SDS011;40102;50.906;6.972;2022-09-03T07:31:32;1.10;;;0.88;;
54193;SDS011;40102;50.906;6.972;2022-09-03T07:34:04;0.90;;;0.90;;
54193;SDS011;40102;50.906;6.972;2022-09-03T07:36:34;1.05;;;0.95;;
54193;SDS011;40102;50.906;6.972;2022-09-03T07:39:10;1.77;;;0.95;;
54193;SDS011;40102;50.906;6.972;2022-09-03T07:41:36;1.60;;;0.88;;
54193;SDS011;40102;50.906;6.972;2022-09-03T07:44:03;3.78;;;1.80;;
54193;SDS011;40102;50.906;6.972;2022-09-03T07:46:32;1.20;;;0.90;;
54193;SDS011;40102;50.906;6.972;2022-09-03T07:48:59;1.77;;;1.10;;
54193;SDS011;40102;50.906;6.972;2022-09-03T07:51:29;3.15;;;1.05;;
54193;SDS011;40102;50.906;6.972;2022-09-03T07:53:57;1.38;;;1.02;;
54193;SDS011;40102;50.906;6.972;2022-09-03T07:56:24;3.58;;;1.10;;
54193;SDS011;40102;50.906;6.972;2022-09-03T07:58:51;3.72;;;0.90;;
54193;SDS011;40102;50.906;6.972;2022-09-03T08:01:17;1.83;;;1.00;;
54193;SDS011;40102;50.906;6.972;2022-09-03T08:03:46;3.60;;;1.02;;
54193;SDS011;40102;50.906;6.972;2022-09-03T08:06:13;1.10;;;0.90;;
54193;SDS011;40102;50.906;6.972;2022-09-03T08:08:39;3.17;;;1.08;;
54193;SDS011;40102;50.906;6.972;2022-09-03T08:11:15;4.03;;;0.95;;
54193;SDS011;40102;50.906;6.972;2022-09-03T08:13:54;2.05;;;1.17;;
54193;SDS011;40102;50.906;6.972;2022-09-03T08:16:28;2.45;;;1.00;;
54193;SDS011;40102;50.906;6.972;2022-09-03T08:18:54;7.53;;;1.20;;
54193;SDS011;40102;50.906;6.972;2022-09-03T08:21:20;3.92;;;1.00;;
54193;SDS011;40102;50.906;6.972;2022-09-03T08:23:48;3.22;;;1.10;;
54193;SDS011;40102;50.906;6.972;2022-09-03T08:26:16;3.20;;;1.00;;
54193;SDS011;40102;50.906;6.972;2022-09-03T08:28:42;1.73;;;1.02;;
54193;SDS011;40102;50.906;6.972;2022-09-03T08:31:12;2.13;;;1.20;;
54193;SDS011;40102;50.906;6.972;2022-09-03T08:33:43;2.03;;;1.00;;
54193;SDS011;40102;50.906;6.972;2022-09-03T08:36:11;2.28;;;1.00;;
54193;SDS011;40102;50.906;6.972;2022-09-03T08:38:39;2.97;;;1.20;;
54193;SDS011;40102;50.906;6.972;2022-09-03T08:41:16;1.75;;;1.23;;
54193;SDS011;40102;50.906;6.972;2022-09-03T08:46:56;4.60;;;1.40;;
54193;SDS011;40102;50.906;6.972;2022-09-03T08:49:34;1.80;;;1.10;;
54193;SDS011;40102;50.906;6.972;2022-09-03T08:58:05;1.55;;;1.15;;
54193;SDS011;40102;50.906;6.972;2022-09-03T09:03:49;1.17;;;1.00;;
54193;SDS011;40102;50.906;6.972;2022-09-03T09:06:17;1.52;;;0.98;;
54193;SDS011;40102;50.906;6.972;2022-09-03T09:08:50;1.13;;;1.00;;
54193;SDS011;40102;50.906;6.972;2022-09-03T09:12:03;1.98;;;0.93;;
54193;SDS011;40102;50.906;6.972;2022-09-03T09:14:33;2.65;;;1.20;;
54193;SDS011;40102;50.906;6.972;2022-09-03T09:20:22;3.30;;;1.30;;
54193;SDS011;40102;50.906;6.972;2022-09-03T09:23:26;2.63;;;1.40;;
54193;SDS011;40102;50.906;6.972;2022-09-03T09:25:55;9.10;;;4.70;;
54193;SDS011;40102;50.906;6.972;2022-09-03T09:28:24;6.68;;;3.42;;
54193;SDS011;40102;50.906;6.972;2022-09-03T09:30:56;2.05;;;1.23;;
54193;SDS011;40102;50.906;6.972;2022-09-03T09:33:22;4.00;;;1.73;;
54193;SDS011;40102;50.906;6.972;2022-09-03T09:35:49;2.67;;;1.58;;
54193;SDS011;40102;50.906;6.972;2022-09-03T09:38:14;1.75;;;1.50;;
54193;SDS011;40102;50.906;6.972;2022-09-03T09:40:55;2.70;;;1.95;;
54193;SDS011;40102;50.906;6.972;2022-09-03T09:43:22;3.30;;;2.58;;
54193;SDS011;40102;50.906;6.972;2022-09-03T09:45:51;4.68;;;3.25;;
54193;SDS011;40102;50.906;6.972;2022-09-03T09:48:20;3.50;;;2.90;;
54193;SDS011;40102;50.906;6.972;2022-09-03T09:53:35;10.40;;;2.63;;
54193;SDS011;40102;50.906;6.972;2022-09-03T09:56:01;2.72;;;2.30;;
54193;SDS011;40102;50.906;6.972;2022-09-03T09:58:28;3.65;;;2.20;;
54193;SDS011;40102;50.906;6.972;2022-09-03T10:00:59;4.18;;;2.00;;
54193;SDS011;40102;50.906;6.972;2022-09-03T10:03:38;3.72;;;1.90;;
54193;SDS011;40102;50.906;6.972;2022-09-03T10:06:13;2.70;;;2.17;;
54193;SDS011;40102;50.906;6.972;2022-09-03T10:09:09;2.92;;;1.90;;
54193;SDS011;40102;50.906;6.972;2022-09-03T10:11:44;3.30;;;1.85;;
54193;SDS011;40102;50.906;6.972;2022-09-03T10:14:20;2.80;;;1.80;;
54193;SDS011;40102;50.906;6.972;2022-09-03T10:17:03;3.65;;;1.80;;
54193;SDS011;40102;50.906;6.972;2022-09-03T10:22:57;4.00;;;1.65;;
54193;SDS011;40102;50.906;6.972;2022-09-03T10:27:57;3.22;;;1.67;;
54193;SDS011;40102;50.906;6.972;2022-09-03T10:30:25;3.95;;;1.60;;
54193;SDS011;40102;50.906;6.972;2022-09-03T10:35:31;1.95;;;1.50;;
54193;SDS011;40102;50.906;6.972;2022-09-03T10:46:18;2.03;;;1.40;;
54193;SDS011;40102;50.906;6.972;2022-09-03T10:51:57;7.35;;;2.20;;
54193;SDS011;40102;50.906;6.972;2022-09-03T10:54:42;12.68;;;2.75;;
54193;SDS011;40102;50.906;6.972;2022-09-03T11:00:08;2.53;;;1.23;;
54193;SDS011;40102;50.906;6.972;2022-09-03T11:02:43;3.42;;;1.70;;
54193;SDS011;40102;50.906;6.972;2022-09-03T11:05:33;2.85;;;1.40;;
54193;SDS011;40102;50.906;6.972;2022-09-03T11:08:11;2.97;;;1.60;;
54193;SDS011;40102;50.906;6.972;2022-09-03T11:10:43;1.93;;;1.60;;
54193;SDS011;40102;50.906;6.972;2022-09-03T11:13:24;2.58;;;1.40;;
54193;SDS011;40102;50.906;6.972;2022-09-03T11:16:29;1.90;;;1.58;;
54193;SDS011;40102;50.906;6.972;2022-09-03T11:21:27;4.30;;;1.58;;
54193;SDS011;40102;50.906;6.972;2022-09-03T11:26:44;2.55;;;1.60;;
54193;SDS011;40102;50.906;6.972;2022-09-03T11:32:14;2.58;;;1.60;;
54193;SDS011;40102;50.906;6.972;2022-09-03T11:34:45;1.88;;;1.60;;
54193;SDS011;40102;50.906;6.972;2022-09-03T11:37:25;2.85;;;1.67;;
54193;SDS011;40102;50.906;6.972;2022-09-03T11:42:39;3.20;;;1.98;;
54193;SDS011;40102;50.906;6.972;2022-09-03T11:45:14;4.47;;;1.80;;
54193;SDS011;40102;50.906;6.972;2022-09-03T11:47:46;3.30;;;1.80;;
54193;SDS011;40102;50.906;6.972;2022-09-03T11:50:21;3.33;;;1.67;;
54193;SDS011;40102;50.906;6.972;2022-09-03T11:53:22;2.13;;;1.70;;
54193;SDS011;40102;50.906;6.972;2022-09-03T11:55:58;2.72;;;1.63;;
54193;SDS011;40102;50.906;6.972;2022-09-03T11:58:37;3.13;;;2.05;;
54193;SDS011;40102;50.906;6.972;2022-09-03T12:01:11;3.03;;;2.23;;
54193;SDS011;40102;50.906;6.972;2022-09-03T12:03:58;5.97;;;2.05;;
54193;SDS011;40102;50.906;6.972;2022-09-03T12:17:17;4.55;;;1.92;;
54193;SDS011;40102;50.906;6.972;2022-09-03T12:19:51;4.13;;;1.80;;
54193;SDS011;40102;50.906;6.972;2022-09-03T12:22:20;3.88;;;1.95;;
54193;SDS011;40102;50.906;6.972;2022-09-03T12:24:47;4.13;;;2.00;;
54193;SDS011;40102;50.906;6.972;2022-09-03T12:27:24;1.85;;;1.65;;
54193;SDS011;40102;50.906;6.972;2022-09-03T12:29:55;2.53;;;1.95;;
54193;SDS011;40102;50.906;6.972;2022-09-03T12:32:24;4.80;;;2.08;;
54193;SDS011;40102;50.906;6.972;2022-09-03T12:34:51;2.08;;;1.73;;
54193;SDS011;40102;50.906;6.972;2022-09-03T12:37:18;4.13;;;2.05;;
54193;SDS011;40102;50.906;6.972;2022-09-03T12:39:54;2.88;;;2.00;;
54193;SDS011;40102;50.906;6.972;2022-09-03T12:42:27;2.80;;;1.98;;
54193;SDS011;40102;50.906;6.972;2022-09-03T12:44:55;4.47;;;2.97;;
54193;SDS011;40102;50.906;6.972;2022-09-03T12:47:23;2.13;;;1.63;;
54193;SDS011;40102;50.906;6.972;2022-09-03T12:49:50;2.00;;;1.80;;
54193;SDS011;40102;50.906;6.972;2022-09-03T12:52:39;2.53;;;1.88;;
54193;SDS011;40102;50.906;6.972;2022-09-03T12:55:17;2.13;;;1.90;;
54193;SDS011;40102;50.906;6.972;2022-09-03T12:57:49;5.28;;;1.92;;
54193;SDS011;40102;50.906;6.972;2022-09-03T13:00:20;2.05;;;1.80;;
54193;SDS011;40102;50.906;6.972;2022-09-03T13:05:20;2.50;;;1.77;;
54193;SDS011;40102;50.906;6.972;2022-09-03T13:07:53;4.80;;;2.00;;
54193;SDS011;40102;50.906;6.972;2022-09-03T13:10:30;2.03;;;1.80;;
54193;SDS011;40102;50.906;6.972;2022-09-03T13:13:18;3.00;;;1.90;;
54193;SDS011;40102;50.906;6.972;2022-09-03T13:16:05;2.20;;;1.83;;
54193;SDS011;40102;50.906;6.972;2022-09-03T13:29:28;2.88;;;2.17;;
54193;SDS011;40102;50.906;6.972;2022-09-03T13:32:08;2.28;;;1.73;;
54193;SDS011;40102;50.906;6.972;2022-09-03T13:34:41;2.17;;;1.75;;
54193;SDS011;40102;50.906;6.972;2022-09-03T13:40:10;2.92;;;1.70;;
54193;SDS011;40102;50.906;6.972;2022-09-03T13:42:43;3.47;;;1.80;;
54193;SDS011;40102;50.906;6.972;2022-09-03T13:47:51;1.50;;;1.40;;
54193;SDS011;40102;50.906;6.972;2022-09-03T13:50:44;2.88;;;1.70;;
54193;SDS011;40102;50.906;6.972;2022-09-03T13:53:35;2.40;;;1.70;;
54193;SDS011;40102;50.906;6.972;2022-09-03T13:56:31;2.10;;;1.80;;
54193;SDS011;40102;50.906;6.972;2022-09-03T13:59:11;1.90;;;1.70;;
54193;SDS011;40102;50.906;6.972;2022-09-03T14:01:59;2.45;;;1.85;;
54193;SDS011;40102;50.906;6.972;2022-09-03T14:07:24;1.90;;;1.70;;
54193;SDS011;40102;50.906;6.972;2022-09-03T14:10:19;2.00;;;1.70;;
54193;SDS011;40102;50.906;6.972;2022-09-03T14:16:04;2.05;;;1.70;;
54193;SDS011;40102;50.906;6.972;2022-09-03T14:18:41;2.90;;;1.75;;
54193;SDS011;40102;50.906;6.972;2022-09-03T14:21:17;2.97;;;1.60;;
54193;SDS011;40102;50.906;6.972;2022-09-03T14:23:52;4.60;;;1.80;;
54193;SDS011;40102;50.906;6.972;2022-09-03T14:26:35;2.42;;;1.60;;
54193;SDS011;40102;50.906;6.972;2022-09-03T14:31:40;1.80;;;1.58;;
54193;SDS011;40102;50.906;6.972;2022-09-03T14:40:02;5.20;;;1.73;;
54193;SDS011;40102;50.906;6.972;2022-09-03T14:42:42;2.72;;;1.50;;
54193;SDS011;40102;50.906;6.972;2022-09-03T14:47:53;2.60;;;1.70;;
54193;SDS011;40102;50.906;6.972;2022-09-03T14:59:11;3.78;;;1.52;;
54193;SDS011;40102;50.906;6.972;2022-09-03T15:07:33;2.83;;;1.48;;
54193;SDS011;40102;50.906;6.972;2022-09-03T15:18:29;2.38;;;1.50;;
54193;SDS011;40102;50.906;6.972;2022-09-03T15:21:16;2.80;;;1.40;;
54193;SDS011;40102;50.906;6.972;2022-09-03T15:27:08;1.75;;;1.50;;
54193;SDS011;40102;50.906;6.972;2022-09-03T15:35:38;1.73;;;1.55;;
54193;SDS011;40102;50.906;6.972;2022-09-03T15:38:43;1.90;;;1.58;;
54193;SDS011;40102;50.906;6.972;2022-09-03T15:41:20;1.70;;;1.60;;
54193;SDS011;40102;50.906;6.972;2022-09-03T15:43:57;3.60;;;1.55;;
54193;SDS011;40102;50.906;6.972;2022-09-03T15:46:36;5.20;;;1.60;;
54193;SDS011;40102;50.906;6.972;2022-09-03T15:57:50;2.57;;;1.70;;
54193;SDS011;40102;50.906;6.972;2022-09-03T16:00:29;2.42;;;1.50;;
54193;SDS011;40102;50.906;6.972;2022-09-03T16:03:00;1.80;;;1.70;;
54193;SDS011;40102;50.906;6.972;2022-09-03T16:05:43;4.30;;;1.50;;
54193;SDS011;40102;50.906;6.972;2022-09-03T16:24:50;1.90;;;1.45;;
54193;SDS011;40102;50.906;6.972;2022-09-03T16:29:59;2.05;;;1.60;;
54193;SDS011;40102;50.906;6.972;2022-09-03T16:35:15;1.50;;;1.35;;
54193;SDS011;40102;50.906;6.972;2022-09-03T16:37:57;2.30;;;1.60;;
54193;SDS011;40102;50.906;6.972;2022-09-03T16:40:35;3.55;;;1.75;;
54193;SDS011;40102;50.906;6.972;2022-09-03T16:46:03;2.33;;;1.70;;
54193;SDS011;40102;50.906;6.972;2022-09-03T17:00:00;2.67;;;1.30;;
54193;SDS011;40102;50.906;6.972;2022-09-03T17:07:33;1.20;;;1.10;;
54193;SDS011;40102;50.906;6.972;2022-09-03T17:15:59;2.00;;;1.35;;
54193;SDS011;40102;50.906;6.972;2022-09-03T17:29:50;7.15;;;1.95;;
54193;SDS011;40102;50.906;6.972;2022-09-03T17:37:54;4.32;;;2.10;;
54193;SDS011;40102;50.906;6.972;2022-09-03T17:46:43;2.33;;;1.77;;
54193;SDS011;40102;50.906;6.972;2022-09-03T17:49:18;4.35;;;1.70;;
54193;SDS011;40102;50.906;6.972;2022-09-03T17:51:57;2.47;;;1.40;;
54193;SDS011;40102;50.906;6.972;2022-09-03T17:54:44;1.80;;;1.40;;
54193;SDS011;40102;50.906;6.972;2022-09-03T18:10:49;1.67;;;1.30;;
54193;SDS011;40102;50.906;6.972;2022-09-03T18:16:26;2.45;;;1.50;;
54193;SDS011;40102;50.906;6.972;2022-09-03T18:19:38;1.88;;;1.50;;
54193;SDS011;40102;50.906;6.972;2022-09-03T18:22:17;1.48;;;1.30;;
54193;SDS011;40102;50.906;6.972;2022-09-03T18:25:04;3.25;;;1.40;;
54193;SDS011;40102;50.906;6.972;2022-09-03T18:27:53;2.25;;;1.40;;
54193;SDS011;40102;50.906;6.972;2022-09-03T18:30:40;3.45;;;1.40;;
54193;SDS011;40102;50.906;6.972;2022-09-03T18:33:24;1.65;;;1.40;;
54193;SDS011;40102;50.906;6.972;2022-09-03T18:36:10;1.98;;;1.45;;
54193;SDS011;40102;50.906;6.972;2022-09-03T18:38:57;1.30;;;1.20;;
54193;SDS011;40102;50.906;6.972;2022-09-03T18:42:16;2.55;;;1.42;;
54193;SDS011;40102;50.906;6.972;2022-09-03T18:45:26;2.55;;;1.50;;
54193;SDS011;40102;50.906;6.972;2022-09-03T18:57:43;2.63;;;1.63;;
54193;SDS011;40102;50.906;6.972;2022-09-03T19:00:40;2.08;;;1.88;;
54193;SDS011;40102;50.906;6.972;2022-09-03T19:09:55;3.22;;;2.45;;
54193;SDS011;40102;50.906;6.972;2022-09-03T19:13:45;3.35;;;2.80;;
54193;SDS011;40102;50.906;6.972;2022-09-03T19:22:30;4.28;;;2.17;;
54193;SDS011;40102;50.906;6.972;2022-09-03T19:25:18;3.10;;;2.47;;
54193;SDS011;40102;50.906;6.972;2022-09-03T19:36:57;3.75;;;1.95;;
54193;SDS011;40102;50.906;6.972;2022-09-03T19:49:08;2.53;;;1.77;;
54193;SDS011;40102;50.906;6.972;2022-09-03T19:54:52;2.97;;;1.77;;
54193;SDS011;40102;50.906;6.972;2022-09-03T19:57:42;2.55;;;1.58;;
54193;SDS011;40102;50.906;6.972;2022-09-03T20:00:32;1.95;;;1.65;;
54193;SDS011;40102;50.906;6.972;2022-09-03T20:03:16;2.47;;;1.55;;
54193;SDS011;40102;50.906;6.972;2022-09-03T20:06:01;2.65;;;2.05;;
54193;SDS011;40102;50.906;6.972;2022-09-03T20:08:48;2.65;;;1.73;;
54193;SDS011;40102;50.906;6.972;2022-09-03T20:11:33;2.53;;;1.52;;
54193;SDS011;40102;50.906;6.972;2022-09-03T20:14:01;2.38;;;1.90;;
54193;SDS011;40102;50.906;6.972;2022-09-03T20:30:10;2.65;;;2.10;;
54193;SDS011;40102;50.906;6.972;2022-09-03T20:38:20;3.25;;;2.50;;
54193;SDS011;40102;50.906;6.972;2022-09-03T20:54:36;4.00;;;1.90;;
54193;SDS011;40102;50.906;6.972;2022-09-03T20:57:17;2.58;;;1.67;;
54193;SDS011;40102;50.906;6.972;2022-09-03T21:05:42;2.88;;;1.88;;
54193;SDS011;40102;50.906;6.972;2022-09-03T21:13:57;2.50;;;2.10;;
54193;SDS011;40102;50.906;6.972;2022-09-03T21:19:31;3.85;;;1.85;;
54193;SDS011;40102;50.906;6.972;2022-09-03T21:22:12;2.15;;;1.90;;
54193;SDS011;40102;50.906;6.972;2022-09-03T21:24:50;2.67;;;2.03;;
54193;SDS011;40102;50.906;6.972;2022-09-03T21:27:22;2.50;;;1.98;;
54193;SDS011;40102;50.906;6.972;2022-09-03T21:30:04;2.88;;;2.00;;
54193;SDS011;40102;50.906;6.972;2022-09-03T21:32:38;2.17;;;1.90;;
54193;SDS011;40102;50.906;6.972;2022-09-03T21:35:20;2.45;;;2.13;;